sensor_id;sensor_type;location;lat;lon;timestamp;P1;durP1;ratioP1;P2;durP2;ratioP2
23410;SDS011;11878;51.774;7.220;2023-12-20T00:00:20;17.03;;;5.37;;
23410;SDS011;11878;51.774;7.220;2023-12-20T00:03:21;13.57;;;4.70;;
23410;SDS011;11878;51.774;7.220;2023-12-20T00:06:25;12.50;;;4.63;;
23410;SDS011;11878;51.774;7.220;2023-12-20T00:09:27;11.47;;;4.63;;
23410;SDS011;11878;51.774;7.220;2023-12-20T00:12:29;16.30;;;6.00;;
23410;SDS011;11878;51.774;7.220;2023-12-20T00:15:30;11.43;;;4.63;;
23410;SDS011;11878;51.774;7.220;2023-12-20T00:18:32;14.20;;;5.33;;
23410;SDS011;11878;51.774;7.220;2023-12-20T00:21:34;13.63;;;5.27;;
23410;SDS011;11878;51.774;7.220;2023-12-20T00:24:36;14.93;;;4.53;;
23410;SDS011;11878;51.774;7.220;2023-12-20T00:27:37;13.53;;;6.40;;
23410;SDS011;11878;51.774;7.220;2023-12-20T00:30:39;12.67;;;5.07;;
23410;SDS011;11878;51.774;7.220;2023-12-20T00:33:41;13.40;;;6.30;;
23410;SDS011;11878;51.774;7.220;2023-12-20T00:36:45;11.70;;;4.70;;
23410;SDS011;11878;51.774;7.220;2023-12-20T00:39:47;13.57;;;5.77;;
23410;SDS011;11878;51.774;7.220;2023-12-20T00:42:49;15.10;;;4.37;;
23410;SDS011;11878;51.774;7.220;2023-12-20T00:45:51;13.90;;;4.37;;
23410;SDS011;11878;51.774;7.220;2023-12-20T00:48:53;7.43;;;3.33;;
23410;SDS011;11878;51.774;7.220;2023-12-20T00:51:55;8.83;;;4.33;;
23410;SDS011;11878;51.774;7.220;2023-12-20T00:54:56;15.13;;;5.20;;
23410;SDS011;11878;51.774;7.220;2023-12-20T00:57:58;12.30;;;4.30;;
23410;SDS011;11878;51.774;7.220;2023-12-20T01:01:01;17.63;;;4.43;;
23410;SDS011;11878;51.774;7.220;2023-12-20T01:04:03;11.00;;;3.13;;
23410;SDS011;11878;51.774;7.220;2023-12-20T01:07:05;8.80;;;4.00;;
23410;SDS011;11878;51.774;7.220;2023-12-20T01:10:07;19.23;;;3.43;;
23410;SDS011;11878;51.774;7.220;2023-12-20T01:13:10;11.27;;;3.53;;
23410;SDS011;11878;51.774;7.220;2023-12-20T01:16:11;11.77;;;3.20;;
23410;SDS011;11878;51.774;7.220;2023-12-20T01:19:13;6.70;;;2.73;;
23410;SDS011;11878;51.774;7.220;2023-12-20T01:22:16;8.17;;;2.40;;
23410;SDS011;11878;51.774;7.220;2023-12-20T01:25:18;10.17;;;2.73;;
23410;SDS011;11878;51.774;7.220;2023-12-20T01:28:20;5.17;;;2.83;;
23410;SDS011;11878;51.774;7.220;2023-12-20T01:31:22;9.10;;;2.20;;
23410;SDS011;11878;51.774;7.220;2023-12-20T01:34:24;5.10;;;1.53;;
23410;SDS011;11878;51.774;7.220;2023-12-20T01:37:26;8.87;;;2.80;;
23410;SDS011;11878;51.774;7.220;2023-12-20T01:40:30;8.50;;;2.10;;
23410;SDS011;11878;51.774;7.220;2023-12-20T01:43:32;10.23;;;2.10;;
23410;SDS011;11878;51.774;7.220;2023-12-20T01:46:48;7.13;;;2.10;;
23410;SDS011;11878;51.774;7.220;2023-12-20T01:49:50;10.37;;;2.30;;
23410;SDS011;11878;51.774;7.220;2023-12-20T01:52:52;7.00;;;2.33;;
23410;SDS011;11878;51.774;7.220;2023-12-20T01:55:58;8.23;;;2.03;;
23410;SDS011;11878;51.774;7.220;2023-12-20T01:59:00;17.00;;;2.67;;
23410;SDS011;11878;51.774;7.220;2023-12-20T02:02:03;9.23;;;2.90;;
23410;SDS011;11878;51.774;7.220;2023-12-20T02:05:06;12.13;;;2.87;;
23410;SDS011;11878;51.774;7.220;2023-12-20T02:08:09;6.07;;;2.20;;
23410;SDS011;11878;51.774;7.220;2023-12-20T02:11:11;5.60;;;2.57;;
23410;SDS011;11878;51.774;7.220;2023-12-20T02:14:13;5.77;;;2.50;;
23410;SDS011;11878;51.774;7.220;2023-12-20T02:17:15;13.00;;;3.37;;
23410;SDS011;11878;51.774;7.220;2023-12-20T02:20:17;15.73;;;2.80;;
23410;SDS011;11878;51.774;7.220;2023-12-20T02:23:19;19.50;;;3.47;;
23410;SDS011;11878;51.774;7.220;2023-12-20T02:26:24;8.73;;;2.33;;
23410;SDS011;11878;51.774;7.220;2023-12-20T02:29:26;8.93;;;2.67;;
23410;SDS011;11878;51.774;7.220;2023-12-20T02:32:28;5.43;;;2.07;;
23410;SDS011;11878;51.774;7.220;2023-12-20T02:35:30;5.83;;;2.50;;
23410;SDS011;11878;51.774;7.220;2023-12-20T02:38:32;6.27;;;2.40;;
23410;SDS011;11878;51.774;7.220;2023-12-20T02:41:35;10.90;;;2.43;;
23410;SDS011;11878;51.774;7.220;2023-12-20T02:44:37;10.07;;;2.83;;
23410;SDS011;11878;51.774;7.220;2023-12-20T02:47:39;5.97;;;2.27;;
23410;SDS011;11878;51.774;7.220;2023-12-20T02:50:40;7.03;;;2.10;;
23410;SDS011;11878;51.774;7.220;2023-12-20T02:53:42;10.60;;;2.40;;
23410;SDS011;11878;51.774;7.220;2023-12-20T02:56:44;16.97;;;3.07;;
23410;SDS011;11878;51.774;7.220;2023-12-20T02:59:46;6.63;;;2.37;;
23410;SDS011;11878;51.774;7.220;2023-12-20T03:02:48;6.93;;;2.63;;
23410;SDS011;11878;51.774;7.220;2023-12-20T03:05:49;12.47;;;3.53;;
23410;SDS011;11878;51.774;7.220;2023-12-20T03:08:51;5.13;;;2.47;;
23410;SDS011;11878;51.774;7.220;2023-12-20T03:11:53;17.93;;;3.57;;
23410;SDS011;11878;51.774;7.220;2023-12-20T03:14:55;5.77;;;2.60;;
23410;SDS011;11878;51.774;7.220;2023-12-20T03:17:57;8.97;;;3.73;;
23410;SDS011;11878;51.774;7.220;2023-12-20T03:21:00;6.53;;;2.83;;
23410;SDS011;11878;51.774;7.220;2023-12-20T03:24:02;8.60;;;2.53;;
23410;SDS011;11878;51.774;7.220;2023-12-20T03:27:04;12.57;;;2.97;;
23410;SDS011;11878;51.774;7.220;2023-12-20T03:30:06;13.43;;;3.00;;
23410;SDS011;11878;51.774;7.220;2023-12-20T03:33:08;10.10;;;3.10;;
23410;SDS011;11878;51.774;7.220;2023-12-20T03:36:10;12.47;;;2.20;;
23410;SDS011;11878;51.774;7.220;2023-12-20T03:39:12;7.30;;;2.60;;
23410;SDS011;11878;51.774;7.220;2023-12-20T03:42:14;6.77;;;2.57;;
23410;SDS011;11878;51.774;7.220;2023-12-20T03:45:15;7.73;;;2.23;;
23410;SDS011;11878;51.774;7.220;2023-12-20T03:48:27;7.93;;;2.80;;
23410;SDS011;11878;51.774;7.220;2023-12-20T03:51:29;15.10;;;3.13;;
23410;SDS011;11878;51.774;7.220;2023-12-20T03:54:30;6.63;;;2.90;;
23410;SDS011;11878;51.774;7.220;2023-12-20T03:57:32;11.93;;;3.13;;
23410;SDS011;11878;51.774;7.220;2023-12-20T04:00:34;13.97;;;3.60;;
23410;SDS011;11878;51.774;7.220;2023-12-20T04:03:36;16.57;;;4.27;;
23410;SDS011;11878;51.774;7.220;2023-12-20T04:06:38;17.53;;;4.23;;
23410;SDS011;11878;51.774;7.220;2023-12-20T04:09:41;8.47;;;3.33;;
23410;SDS011;11878;51.774;7.220;2023-12-20T04:12:43;10.50;;;3.80;;
23410;SDS011;11878;51.774;7.220;2023-12-20T04:15:44;17.60;;;4.30;;
23410;SDS011;11878;51.774;7.220;2023-12-20T04:18:46;9.60;;;3.50;;
23410;SDS011;11878;51.774;7.220;2023-12-20T04:21:48;13.27;;;3.67;;
23410;SDS011;11878;51.774;7.220;2023-12-20T04:24:50;10.10;;;3.50;;
23410;SDS011;11878;51.774;7.220;2023-12-20T04:27:52;9.03;;;4.47;;
23410;SDS011;11878;51.774;7.220;2023-12-20T04:30:54;19.43;;;4.80;;
23410;SDS011;11878;51.774;7.220;2023-12-20T04:33:55;13.50;;;4.00;;
23410;SDS011;11878;51.774;7.220;2023-12-20T04:36:57;11.20;;;3.13;;
23410;SDS011;11878;51.774;7.220;2023-12-20T04:39:59;14.57;;;4.43;;
23410;SDS011;11878;51.774;7.220;2023-12-20T04:43:01;22.67;;;3.73;;
23410;SDS011;11878;51.774;7.220;2023-12-20T04:46:03;9.10;;;3.20;;
23410;SDS011;11878;51.774;7.220;2023-12-20T04:49:05;5.70;;;3.07;;
23410;SDS011;11878;51.774;7.220;2023-12-20T04:52:07;16.47;;;3.70;;
23410;SDS011;11878;51.774;7.220;2023-12-20T04:55:09;11.83;;;3.23;;
23410;SDS011;11878;51.774;7.220;2023-12-20T04:58:11;16.30;;;2.93;;
23410;SDS011;11878;51.774;7.220;2023-12-20T05:01:12;12.00;;;3.07;;
23410;SDS011;11878;51.774;7.220;2023-12-20T05:04:15;8.43;;;3.73;;
23410;SDS011;11878;51.774;7.220;2023-12-20T05:07:16;12.37;;;2.93;;
23410;SDS011;11878;51.774;7.220;2023-12-20T05:10:18;20.37;;;3.63;;
23410;SDS011;11878;51.774;7.220;2023-12-20T05:13:20;9.00;;;3.03;;
23410;SDS011;11878;51.774;7.220;2023-12-20T05:16:26;11.53;;;2.33;;
23410;SDS011;11878;51.774;7.220;2023-12-20T05:19:28;11.37;;;3.00;;
23410;SDS011;11878;51.774;7.220;2023-12-20T05:22:30;12.13;;;3.40;;
23410;SDS011;11878;51.774;7.220;2023-12-20T05:25:32;8.50;;;3.10;;
23410;SDS011;11878;51.774;7.220;2023-12-20T05:28:34;17.63;;;4.50;;
23410;SDS011;11878;51.774;7.220;2023-12-20T05:31:36;15.47;;;3.50;;
23410;SDS011;11878;51.774;7.220;2023-12-20T05:34:38;19.93;;;3.57;;
23410;SDS011;11878;51.774;7.220;2023-12-20T05:37:39;8.00;;;2.90;;
23410;SDS011;11878;51.774;7.220;2023-12-20T05:40:41;11.30;;;2.50;;
23410;SDS011;11878;51.774;7.220;2023-12-20T05:43:43;11.97;;;3.53;;
23410;SDS011;11878;51.774;7.220;2023-12-20T05:46:45;7.73;;;2.90;;
23410;SDS011;11878;51.774;7.220;2023-12-20T05:49:47;6.50;;;2.53;;
23410;SDS011;11878;51.774;7.220;2023-12-20T05:52:49;10.93;;;3.13;;
23410;SDS011;11878;51.774;7.220;2023-12-20T05:55:51;18.63;;;3.57;;
23410;SDS011;11878;51.774;7.220;2023-12-20T05:58:53;16.53;;;3.27;;
23410;SDS011;11878;51.774;7.220;2023-12-20T06:01:55;13.07;;;3.30;;
23410;SDS011;11878;51.774;7.220;2023-12-20T06:04:57;17.60;;;2.60;;
23410;SDS011;11878;51.774;7.220;2023-12-20T06:07:59;7.60;;;3.23;;
23410;SDS011;11878;51.774;7.220;2023-12-20T06:11:04;6.13;;;2.90;;
23410;SDS011;11878;51.774;7.220;2023-12-20T06:14:06;5.87;;;1.90;;
23410;SDS011;11878;51.774;7.220;2023-12-20T06:17:08;11.73;;;3.23;;
23410;SDS011;11878;51.774;7.220;2023-12-20T06:20:10;15.83;;;3.80;;
23410;SDS011;11878;51.774;7.220;2023-12-20T06:23:12;14.83;;;3.47;;
23410;SDS011;11878;51.774;7.220;2023-12-20T06:26:14;6.13;;;2.27;;
23410;SDS011;11878;51.774;7.220;2023-12-20T06:29:16;19.70;;;3.80;;
23410;SDS011;11878;51.774;7.220;2023-12-20T06:32:18;7.17;;;3.13;;
23410;SDS011;11878;51.774;7.220;2023-12-20T06:35:20;13.43;;;3.27;;
23410;SDS011;11878;51.774;7.220;2023-12-20T06:38:21;6.50;;;2.63;;
23410;SDS011;11878;51.774;7.220;2023-12-20T06:41:23;10.90;;;3.40;;
23410;SDS011;11878;51.774;7.220;2023-12-20T06:44:25;5.73;;;3.17;;
23410;SDS011;11878;51.774;7.220;2023-12-20T06:47:27;11.73;;;2.57;;
23410;SDS011;11878;51.774;7.220;2023-12-20T06:50:29;6.63;;;2.57;;
23410;SDS011;11878;51.774;7.220;2023-12-20T06:53:31;11.13;;;3.13;;
23410;SDS011;11878;51.774;7.220;2023-12-20T06:56:33;21.50;;;3.47;;
23410;SDS011;11878;51.774;7.220;2023-12-20T06:59:41;16.07;;;3.07;;
23410;SDS011;11878;51.774;7.220;2023-12-20T07:02:43;4.70;;;2.17;;
23410;SDS011;11878;51.774;7.220;2023-12-20T07:05:45;13.63;;;4.67;;
23410;SDS011;11878;51.774;7.220;2023-12-20T07:08:47;35.57;;;10.77;;
23410;SDS011;11878;51.774;7.220;2023-12-20T07:11:49;73.33;;;21.40;;
23410;SDS011;11878;51.774;7.220;2023-12-20T07:14:50;16.67;;;4.90;;
23410;SDS011;11878;51.774;7.220;2023-12-20T07:17:52;12.27;;;4.07;;
23410;SDS011;11878;51.774;7.220;2023-12-20T07:20:54;14.10;;;4.37;;
23410;SDS011;11878;51.774;7.220;2023-12-20T07:23:56;12.10;;;4.40;;
23410;SDS011;11878;51.774;7.220;2023-12-20T07:27:01;10.77;;;2.90;;
23410;SDS011;11878;51.774;7.220;2023-12-20T07:30:03;11.33;;;2.97;;
23410;SDS011;11878;51.774;7.220;2023-12-20T07:33:06;16.33;;;4.43;;
23410;SDS011;11878;51.774;7.220;2023-12-20T07:36:10;9.00;;;3.20;;
23410;SDS011;11878;51.774;7.220;2023-12-20T07:39:13;7.13;;;3.03;;
23410;SDS011;11878;51.774;7.220;2023-12-20T07:42:15;8.17;;;2.57;;
23410;SDS011;11878;51.774;7.220;2023-12-20T07:45:17;15.30;;;3.30;;
23410;SDS011;11878;51.774;7.220;2023-12-20T07:48:19;15.47;;;3.87;;
23410;SDS011;11878;51.774;7.220;2023-12-20T07:51:21;12.43;;;3.50;;
23410;SDS011;11878;51.774;7.220;2023-12-20T07:54:23;10.63;;;3.50;;
23410;SDS011;11878;51.774;7.220;2023-12-20T07:57:24;17.53;;;3.73;;
23410;SDS011;11878;51.774;7.220;2023-12-20T08:00:26;12.33;;;3.50;;
23410;SDS011;11878;51.774;7.220;2023-12-20T08:03:28;12.73;;;3.50;;
23410;SDS011;11878;51.774;7.220;2023-12-20T08:06:30;18.93;;;4.03;;
23410;SDS011;11878;51.774;7.220;2023-12-20T08:09:32;10.57;;;3.60;;
23410;SDS011;11878;51.774;7.220;2023-12-20T08:12:35;11.90;;;2.80;;
23410;SDS011;11878;51.774;7.220;2023-12-20T08:15:37;19.87;;;3.50;;
23410;SDS011;11878;51.774;7.220;2023-12-20T08:18:39;9.13;;;3.30;;
23410;SDS011;11878;51.774;7.220;2023-12-20T08:21:41;16.50;;;3.43;;
23410;SDS011;11878;51.774;7.220;2023-12-20T08:24:42;18.27;;;3.00;;
23410;SDS011;11878;51.774;7.220;2023-12-20T08:27:44;10.03;;;2.93;;
23410;SDS011;11878;51.774;7.220;2023-12-20T08:30:48;11.67;;;2.87;;
23410;SDS011;11878;51.774;7.220;2023-12-20T08:33:50;19.10;;;2.80;;
23410;SDS011;11878;51.774;7.220;2023-12-20T08:36:52;4.97;;;2.17;;
23410;SDS011;11878;51.774;7.220;2023-12-20T08:39:55;9.13;;;2.30;;
23410;SDS011;11878;51.774;7.220;2023-12-20T08:42:57;9.20;;;2.30;;
23410;SDS011;11878;51.774;7.220;2023-12-20T08:45:59;6.10;;;2.30;;
23410;SDS011;11878;51.774;7.220;2023-12-20T08:49:01;9.07;;;2.43;;
23410;SDS011;11878;51.774;7.220;2023-12-20T08:52:04;9.50;;;2.57;;
23410;SDS011;11878;51.774;7.220;2023-12-20T08:55:06;5.70;;;1.97;;
23410;SDS011;11878;51.774;7.220;2023-12-20T08:58:09;15.67;;;2.67;;
23410;SDS011;11878;51.774;7.220;2023-12-20T09:01:11;10.00;;;2.23;;
23410;SDS011;11878;51.774;7.220;2023-12-20T09:04:13;9.93;;;2.77;;
23410;SDS011;11878;51.774;7.220;2023-12-20T09:07:22;7.03;;;1.63;;
23410;SDS011;11878;51.774;7.220;2023-12-20T09:10:24;11.00;;;2.30;;
23410;SDS011;11878;51.774;7.220;2023-12-20T09:13:26;10.27;;;2.20;;
23410;SDS011;11878;51.774;7.220;2023-12-20T09:16:29;11.73;;;2.93;;
23410;SDS011;11878;51.774;7.220;2023-12-20T09:19:33;13.57;;;2.10;;
23410;SDS011;11878;51.774;7.220;2023-12-20T09:22:35;12.33;;;2.23;;
23410;SDS011;11878;51.774;7.220;2023-12-20T09:25:37;9.90;;;1.67;;
23410;SDS011;11878;51.774;7.220;2023-12-20T09:28:39;7.23;;;2.27;;
23410;SDS011;11878;51.774;7.220;2023-12-20T09:31:41;20.17;;;3.13;;
23410;SDS011;11878;51.774;7.220;2023-12-20T09:34:45;18.43;;;3.00;;
23410;SDS011;11878;51.774;7.220;2023-12-20T09:37:47;15.13;;;2.67;;
23410;SDS011;11878;51.774;7.220;2023-12-20T09:40:49;12.43;;;2.70;;
23410;SDS011;11878;51.774;7.220;2023-12-20T09:43:51;7.40;;;2.70;;
23410;SDS011;11878;51.774;7.220;2023-12-20T09:46:55;3.77;;;1.47;;
23410;SDS011;11878;51.774;7.220;2023-12-20T09:49:58;12.80;;;2.87;;
23410;SDS011;11878;51.774;7.220;2023-12-20T09:53:03;11.30;;;2.33;;
23410;SDS011;11878;51.774;7.220;2023-12-20T09:56:10;5.17;;;1.67;;
23410;SDS011;11878;51.774;7.220;2023-12-20T09:59:13;10.03;;;2.57;;
23410;SDS011;11878;51.774;7.220;2023-12-20T10:02:16;13.00;;;2.47;;
23410;SDS011;11878;51.774;7.220;2023-12-20T10:05:27;13.83;;;2.57;;
23410;SDS011;11878;51.774;7.220;2023-12-20T10:08:33;5.97;;;1.53;;
23410;SDS011;11878;51.774;7.220;2023-12-20T10:11:36;10.60;;;2.77;;
23410;SDS011;11878;51.774;7.220;2023-12-20T10:14:39;10.03;;;2.30;;
23410;SDS011;11878;51.774;7.220;2023-12-20T10:17:41;12.43;;;2.17;;
23410;SDS011;11878;51.774;7.220;2023-12-20T10:20:43;20.33;;;3.07;;
23410;SDS011;11878;51.774;7.220;2023-12-20T10:23:46;10.50;;;2.80;;
23410;SDS011;11878;51.774;7.220;2023-12-20T10:26:48;4.50;;;1.93;;
23410;SDS011;11878;51.774;7.220;2023-12-20T10:30:08;9.33;;;2.03;;
23410;SDS011;11878;51.774;7.220;2023-12-20T10:33:11;9.43;;;2.33;;
23410;SDS011;11878;51.774;7.220;2023-12-20T10:36:13;11.30;;;2.20;;
23410;SDS011;11878;51.774;7.220;2023-12-20T10:39:15;6.20;;;2.30;;
23410;SDS011;11878;51.774;7.220;2023-12-20T10:42:20;14.87;;;3.10;;
23410;SDS011;11878;51.774;7.220;2023-12-20T10:45:23;15.93;;;2.83;;
23410;SDS011;11878;51.774;7.220;2023-12-20T10:48:25;11.53;;;2.17;;
23410;SDS011;11878;51.774;7.220;2023-12-20T10:51:31;12.37;;;1.80;;
23410;SDS011;11878;51.774;7.220;2023-12-20T10:54:35;7.43;;;2.60;;
23410;SDS011;11878;51.774;7.220;2023-12-20T10:57:36;8.00;;;2.93;;
23410;SDS011;11878;51.774;7.220;2023-12-20T11:00:39;13.13;;;2.23;;
23410;SDS011;11878;51.774;7.220;2023-12-20T11:03:44;18.27;;;3.53;;
23410;SDS011;11878;51.774;7.220;2023-12-20T11:10:19;16.40;;;5.47;;
23410;SDS011;11878;51.774;7.220;2023-12-20T11:13:26;16.50;;;3.87;;
23410;SDS011;11878;51.774;7.220;2023-12-20T11:16:36;8.30;;;2.27;;
23410;SDS011;11878;51.774;7.220;2023-12-20T11:22:54;14.67;;;3.50;;
23410;SDS011;11878;51.774;7.220;2023-12-20T11:25:56;9.33;;;2.90;;
23410;SDS011;11878;51.774;7.220;2023-12-20T11:32:42;5.37;;;1.60;;
23410;SDS011;11878;51.774;7.220;2023-12-20T11:35:45;13.23;;;2.77;;
23410;SDS011;11878;51.774;7.220;2023-12-20T11:38:53;11.77;;;3.07;;
23410;SDS011;11878;51.774;7.220;2023-12-20T11:41:57;10.50;;;3.47;;
23410;SDS011;11878;51.774;7.220;2023-12-20T11:45:27;9.07;;;2.00;;
23410;SDS011;11878;51.774;7.220;2023-12-20T11:48:32;7.63;;;2.33;;
23410;SDS011;11878;51.774;7.220;2023-12-20T11:51:35;9.67;;;2.10;;
23410;SDS011;11878;51.774;7.220;2023-12-20T11:54:42;7.53;;;2.10;;
23410;SDS011;11878;51.774;7.220;2023-12-20T11:57:44;6.57;;;2.67;;
23410;SDS011;11878;51.774;7.220;2023-12-20T12:00:48;11.53;;;2.47;;
23410;SDS011;11878;51.774;7.220;2023-12-20T12:04:02;6.83;;;2.23;;
23410;SDS011;11878;51.774;7.220;2023-12-20T12:07:07;8.83;;;2.83;;
23410;SDS011;11878;51.774;7.220;2023-12-20T12:10:09;13.83;;;4.20;;
23410;SDS011;11878;51.774;7.220;2023-12-20T12:13:11;19.87;;;2.97;;
23410;SDS011;11878;51.774;7.220;2023-12-20T12:16:22;17.90;;;2.73;;
23410;SDS011;11878;51.774;7.220;2023-12-20T12:19:24;12.03;;;2.90;;
23410;SDS011;11878;51.774;7.220;2023-12-20T12:22:28;6.33;;;2.23;;
23410;SDS011;11878;51.774;7.220;2023-12-20T12:25:31;10.70;;;2.87;;
23410;SDS011;11878;51.774;7.220;2023-12-20T12:28:34;8.90;;;2.37;;
23410;SDS011;11878;51.774;7.220;2023-12-20T12:31:36;11.30;;;1.93;;
23410;SDS011;11878;51.774;7.220;2023-12-20T12:34:39;12.70;;;2.40;;
23410;SDS011;11878;51.774;7.220;2023-12-20T12:37:41;17.67;;;2.23;;
23410;SDS011;11878;51.774;7.220;2023-12-20T12:40:44;13.43;;;3.73;;
23410;SDS011;11878;51.774;7.220;2023-12-20T12:43:45;11.70;;;3.77;;
23410;SDS011;11878;51.774;7.220;2023-12-20T12:46:48;6.03;;;3.03;;
23410;SDS011;11878;51.774;7.220;2023-12-20T12:49:54;9.70;;;2.73;;
23410;SDS011;11878;51.774;7.220;2023-12-20T12:52:56;13.60;;;1.97;;
23410;SDS011;11878;51.774;7.220;2023-12-20T12:55:58;11.17;;;2.43;;
23410;SDS011;11878;51.774;7.220;2023-12-20T12:59:00;10.00;;;3.03;;
23410;SDS011;11878;51.774;7.220;2023-12-20T13:02:02;16.53;;;3.03;;
23410;SDS011;11878;51.774;7.220;2023-12-20T13:05:05;10.17;;;2.03;;
23410;SDS011;11878;51.774;7.220;2023-12-20T13:08:07;7.57;;;1.60;;
23410;SDS011;11878;51.774;7.220;2023-12-20T13:11:10;10.87;;;2.10;;
23410;SDS011;11878;51.774;7.220;2023-12-20T13:14:12;11.60;;;1.73;;
23410;SDS011;11878;51.774;7.220;2023-12-20T13:17:16;13.77;;;2.40;;
23410;SDS011;11878;51.774;7.220;2023-12-20T13:20:18;10.30;;;1.97;;
23410;SDS011;11878;51.774;7.220;2023-12-20T13:23:20;16.60;;;1.77;;
23410;SDS011;11878;51.774;7.220;2023-12-20T13:26:22;12.03;;;2.03;;
23410;SDS011;11878;51.774;7.220;2023-12-20T13:29:24;12.03;;;1.70;;
23410;SDS011;11878;51.774;7.220;2023-12-20T13:32:40;9.83;;;2.63;;
23410;SDS011;11878;51.774;7.220;2023-12-20T13:35:43;7.77;;;2.70;;
23410;SDS011;11878;51.774;7.220;2023-12-20T13:38:45;11.23;;;2.20;;
23410;SDS011;11878;51.774;7.220;2023-12-20T13:41:47;14.17;;;2.50;;
23410;SDS011;11878;51.774;7.220;2023-12-20T13:44:48;17.63;;;2.97;;
23410;SDS011;11878;51.774;7.220;2023-12-20T13:47:50;11.10;;;2.30;;
23410;SDS011;11878;51.774;7.220;2023-12-20T13:50:52;7.43;;;2.23;;
23410;SDS011;11878;51.774;7.220;2023-12-20T13:53:55;6.30;;;2.30;;
23410;SDS011;11878;51.774;7.220;2023-12-20T13:56:58;9.63;;;2.73;;
23410;SDS011;11878;51.774;7.220;2023-12-20T14:00:16;13.33;;;2.93;;
23410;SDS011;11878;51.774;7.220;2023-12-20T14:03:18;9.87;;;3.40;;
23410;SDS011;11878;51.774;7.220;2023-12-20T14:06:21;16.90;;;2.43;;
23410;SDS011;11878;51.774;7.220;2023-12-20T14:09:23;6.50;;;2.43;;
23410;SDS011;11878;51.774;7.220;2023-12-20T14:12:25;6.10;;;2.43;;
23410;SDS011;11878;51.774;7.220;2023-12-20T14:15:27;9.97;;;4.20;;
23410;SDS011;11878;51.774;7.220;2023-12-20T14:18:29;7.30;;;2.37;;
23410;SDS011;11878;51.774;7.220;2023-12-20T14:21:31;7.60;;;2.37;;
23410;SDS011;11878;51.774;7.220;2023-12-20T14:24:34;8.13;;;2.20;;
23410;SDS011;11878;51.774;7.220;2023-12-20T14:27:38;6.27;;;3.00;;
23410;SDS011;11878;51.774;7.220;2023-12-20T14:30:40;13.57;;;3.10;;
23410;SDS011;11878;51.774;7.220;2023-12-20T14:33:42;9.83;;;2.90;;
23410;SDS011;11878;51.774;7.220;2023-12-20T14:36:44;7.77;;;3.37;;
23410;SDS011;11878;51.774;7.220;2023-12-20T14:39:46;6.47;;;2.27;;
23410;SDS011;11878;51.774;7.220;2023-12-20T14:42:48;11.03;;;4.53;;
23410;SDS011;11878;51.774;7.220;2023-12-20T14:45:50;9.10;;;3.33;;
23410;SDS011;11878;51.774;7.220;2023-12-20T14:48:52;11.10;;;3.60;;
23410;SDS011;11878;51.774;7.220;2023-12-20T14:51:54;6.70;;;2.70;;
23410;SDS011;11878;51.774;7.220;2023-12-20T14:54:56;12.10;;;3.03;;
23410;SDS011;11878;51.774;7.220;2023-12-20T14:57:58;8.67;;;3.67;;
23410;SDS011;11878;51.774;7.220;2023-12-20T15:01:00;17.87;;;5.60;;
23410;SDS011;11878;51.774;7.220;2023-12-20T15:04:02;14.10;;;5.00;;
23410;SDS011;11878;51.774;7.220;2023-12-20T15:07:05;8.47;;;3.50;;
23410;SDS011;11878;51.774;7.220;2023-12-20T15:10:07;11.80;;;3.67;;
23410;SDS011;11878;51.774;7.220;2023-12-20T15:13:09;8.07;;;3.87;;
23410;SDS011;11878;51.774;7.220;2023-12-20T15:16:12;17.90;;;4.40;;
23410;SDS011;11878;51.774;7.220;2023-12-20T15:19:14;8.90;;;3.87;;
23410;SDS011;11878;51.774;7.220;2023-12-20T15:22:17;9.43;;;3.43;;
23410;SDS011;11878;51.774;7.220;2023-12-20T15:25:19;14.07;;;4.03;;
23410;SDS011;11878;51.774;7.220;2023-12-20T15:28:23;13.33;;;4.40;;
23410;SDS011;11878;51.774;7.220;2023-12-20T15:31:25;8.47;;;3.53;;
23410;SDS011;11878;51.774;7.220;2023-12-20T15:34:28;11.87;;;3.53;;
23410;SDS011;11878;51.774;7.220;2023-12-20T15:37:30;9.90;;;4.17;;
23410;SDS011;11878;51.774;7.220;2023-12-20T15:40:32;18.57;;;4.00;;
23410;SDS011;11878;51.774;7.220;2023-12-20T15:43:34;8.23;;;3.60;;
23410;SDS011;11878;51.774;7.220;2023-12-20T15:46:38;10.10;;;3.97;;
23410;SDS011;11878;51.774;7.220;2023-12-20T15:49:40;7.63;;;3.63;;
23410;SDS011;11878;51.774;7.220;2023-12-20T15:52:42;9.93;;;3.97;;
23410;SDS011;11878;51.774;7.220;2023-12-20T15:55:44;10.03;;;3.77;;
23410;SDS011;11878;51.774;7.220;2023-12-20T15:58:46;8.43;;;3.67;;
23410;SDS011;11878;51.774;7.220;2023-12-20T16:01:49;10.67;;;4.67;;
23410;SDS011;11878;51.774;7.220;2023-12-20T16:04:55;12.50;;;4.60;;
23410;SDS011;11878;51.774;7.220;2023-12-20T16:07:57;14.40;;;4.33;;
23410;SDS011;11878;51.774;7.220;2023-12-20T16:10:59;16.67;;;4.40;;
23410;SDS011;11878;51.774;7.220;2023-12-20T16:14:01;14.30;;;4.00;;
23410;SDS011;11878;51.774;7.220;2023-12-20T16:17:02;8.87;;;4.50;;
23410;SDS011;11878;51.774;7.220;2023-12-20T16:20:07;11.37;;;4.23;;
23410;SDS011;11878;51.774;7.220;2023-12-20T16:23:10;9.83;;;4.13;;
23410;SDS011;11878;51.774;7.220;2023-12-20T16:26:12;11.77;;;3.90;;
23410;SDS011;11878;51.774;7.220;2023-12-20T16:29:14;12.70;;;5.50;;
23410;SDS011;11878;51.774;7.220;2023-12-20T16:32:16;16.13;;;4.73;;
23410;SDS011;11878;51.774;7.220;2023-12-20T16:35:18;18.80;;;5.03;;
23410;SDS011;11878;51.774;7.220;2023-12-20T16:38:20;16.13;;;5.10;;
23410;SDS011;11878;51.774;7.220;2023-12-20T16:41:22;7.03;;;3.80;;
23410;SDS011;11878;51.774;7.220;2023-12-20T16:44:23;12.60;;;4.37;;
23410;SDS011;11878;51.774;7.220;2023-12-20T16:47:25;12.07;;;3.43;;
23410;SDS011;11878;51.774;7.220;2023-12-20T16:50:27;9.07;;;3.90;;
23410;SDS011;11878;51.774;7.220;2023-12-20T16:53:29;12.93;;;4.20;;
23410;SDS011;11878;51.774;7.220;2023-12-20T16:56:31;7.83;;;3.93;;
23410;SDS011;11878;51.774;7.220;2023-12-20T16:59:33;10.77;;;3.53;;
23410;SDS011;11878;51.774;7.220;2023-12-20T17:02:35;9.87;;;4.17;;
23410;SDS011;11878;51.774;7.220;2023-12-20T17:05:37;12.23;;;4.33;;
23410;SDS011;11878;51.774;7.220;2023-12-20T17:08:39;19.20;;;4.37;;
23410;SDS011;11878;51.774;7.220;2023-12-20T17:11:41;12.30;;;4.77;;
23410;SDS011;11878;51.774;7.220;2023-12-20T17:14:43;14.37;;;3.80;;
23410;SDS011;11878;51.774;7.220;2023-12-20T17:17:45;12.67;;;3.83;;
23410;SDS011;11878;51.774;7.220;2023-12-20T17:20:47;10.90;;;3.70;;
23410;SDS011;11878;51.774;7.220;2023-12-20T17:23:49;6.83;;;3.43;;
23410;SDS011;11878;51.774;7.220;2023-12-20T17:26:51;23.20;;;5.20;;
23410;SDS011;11878;51.774;7.220;2023-12-20T17:29:53;15.50;;;4.47;;
23410;SDS011;11878;51.774;7.220;2023-12-20T17:32:55;17.73;;;7.13;;
23410;SDS011;11878;51.774;7.220;2023-12-20T17:35:57;14.73;;;5.77;;
23410;SDS011;11878;51.774;7.220;2023-12-20T17:38:58;12.93;;;6.43;;
23410;SDS011;11878;51.774;7.220;2023-12-20T17:42:00;22.93;;;7.00;;
23410;SDS011;11878;51.774;7.220;2023-12-20T17:45:03;18.07;;;6.90;;
23410;SDS011;11878;51.774;7.220;2023-12-20T17:48:05;14.53;;;5.67;;
23410;SDS011;11878;51.774;7.220;2023-12-20T17:51:08;15.53;;;6.07;;
23410;SDS011;11878;51.774;7.220;2023-12-20T17:54:09;14.60;;;6.03;;
23410;SDS011;11878;51.774;7.220;2023-12-20T17:57:11;16.23;;;5.50;;
23410;SDS011;11878;51.774;7.220;2023-12-20T18:00:17;16.67;;;6.37;;
23410;SDS011;11878;51.774;7.220;2023-12-20T18:03:21;17.33;;;6.60;;
23410;SDS011;11878;51.774;7.220;2023-12-20T18:06:23;26.07;;;5.67;;
23410;SDS011;11878;51.774;7.220;2023-12-20T18:09:25;17.37;;;6.03;;
23410;SDS011;11878;51.774;7.220;2023-12-20T18:12:27;13.47;;;5.67;;
23410;SDS011;11878;51.774;7.220;2023-12-20T18:15:29;12.07;;;5.70;;
23410;SDS011;11878;51.774;7.220;2023-12-20T18:18:31;12.63;;;5.07;;